createdAt,value
2019-03-31T00:00:29.885Z,60.17
2019-03-31T00:01:07.974Z,62.90
2019-03-31T00:01:34.052Z,59.75
2019-03-31T00:02:05.265Z,60.00
2019-03-31T00:02:36.474Z,57.25
2019-03-31T00:03:07.826Z,59.65
2019-03-31T00:03:39.038Z,59.45
2019-03-31T00:04:10.250Z,56.90
2019-03-31T00:04:41.446Z,60.35
2019-03-31T00:05:12.647Z,62.93
2019-03-31T00:05:43.895Z,57.67
2019-03-31T00:06:15.095Z,58.90
2019-03-31T00:06:46.310Z,59.85
2019-03-31T00:07:17.530Z,59.90
2019-03-31T00:07:48.731Z,59.42
2019-03-31T00:08:19.958Z,59.98
2019-03-31T00:08:51.190Z,57.05
2019-03-31T00:09:22.430Z,62.15
2019-03-31T00:09:53.682Z,54.33
2019-03-31T00:10:24.884Z,62.17
2019-03-31T00:10:56.089Z,53.20
2019-03-31T00:11:27.307Z,59.55
2019-03-31T00:11:58.510Z,58.00
2019-03-31T00:12:29.796Z,58.10
2019-03-31T00:13:01.013Z,53.83
2019-03-31T00:13:32.215Z,57.50
2019-03-31T00:14:03.426Z,57.17
2019-03-31T00:14:34.651Z,57.33
2019-03-31T00:15:05.859Z,52.62
2019-03-31T00:15:37.071Z,54.80
2019-03-31T00:16:08.279Z,53.15
2019-03-31T00:16:39.569Z,58.35
2019-03-31T00:17:10.785Z,57.17
2019-03-31T00:17:41.996Z,54.08
2019-03-31T00:18:13.234Z,58.63
2019-03-31T00:18:44.433Z,56.68
2019-03-31T00:19:15.742Z,56.55
2019-03-31T00:19:46.949Z,57.88
2019-03-31T00:20:18.199Z,60.63
2019-03-31T00:20:49.498Z,55.58
2019-03-31T00:21:20.731Z,51.37
2019-03-31T00:21:51.950Z,55.17
2019-03-31T00:22:23.179Z,56.08
2019-03-31T00:22:54.392Z,56.68
2019-03-31T00:23:25.581Z,54.58
2019-03-31T00:23:56.786Z,51.77
2019-03-31T00:24:28.017Z,50.03
2019-03-31T00:24:59.229Z,55.85
2019-03-31T00:25:30.441Z,51.10
2019-03-31T00:26:01.690Z,48.05
2019-03-31T00:26:32.901Z,50.80
2019-03-31T00:27:04.097Z,47.65
2019-03-31T00:27:35.326Z,46.00
2019-03-31T00:28:06.531Z,44.58
2019-03-31T00:28:37.742Z,50.63
2019-03-31T00:29:08.956Z,50.98
2019-03-31T00:29:40.193Z,47.30
2019-03-31T00:30:11.459Z,50.45
2019-03-31T00:30:42.675Z,48.78
2019-03-31T00:31:22.015Z,50.45
2019-03-31T00:31:46.832Z,51.10
2019-03-31T00:32:18.047Z,50.10
2019-03-31T00:32:49.313Z,53.35
2019-03-31T00:33:20.515Z,47.93
2019-03-31T00:33:51.769Z,48.70
2019-03-31T00:34:22.958Z,48.63
2019-03-31T00:34:54.162Z,49.45
2019-03-31T00:35:25.392Z,48.28
2019-03-31T00:35:56.580Z,48.33
2019-03-31T00:36:27.804Z,47.27
2019-03-31T00:36:59.054Z,47.35
2019-03-31T00:37:30.273Z,47.58
2019-03-31T00:38:01.501Z,43.70
2019-03-31T00:38:32.714Z,46.83
2019-03-31T00:39:03.911Z,39.27
2019-03-31T00:39:35.133Z,44.90
2019-03-31T00:40:06.337Z,45.20
2019-03-31T00:40:37.546Z,42.17
2019-03-31T00:41:08.752Z,47.58
2019-03-31T00:41:39.971Z,41.58
2019-03-31T00:42:11.183Z,41.18
2019-03-31T00:42:42.392Z,40.60
2019-03-31T00:43:13.606Z,40.35
2019-03-31T00:43:44.866Z,40.30
2019-03-31T00:44:16.077Z,41.85
2019-03-31T00:44:47.283Z,42.50
2019-03-31T00:45:18.518Z,40.00
2019-03-31T00:45:49.723Z,44.75
2019-03-31T00:46:20.933Z,40.40
2019-03-31T00:46:52.148Z,40.28
2019-03-31T00:47:23.363Z,40.05
2019-03-31T00:47:54.648Z,46.08
2019-03-31T00:48:25.842Z,44.53
2019-03-31T00:48:57.050Z,45.43
2019-03-31T00:49:28.258Z,39.80
2019-03-31T00:49:59.473Z,42.15
2019-03-31T00:50:30.792Z,42.83
2019-03-31T00:51:01.976Z,39.23
2019-03-31T00:51:33.184Z,38.08
2019-03-31T00:52:04.398Z,40.65
2019-03-31T00:52:35.613Z,37.45
2019-03-31T00:53:06.873Z,44.77
2019-03-31T00:53:38.118Z,38.63
2019-03-31T00:54:09.368Z,39.40
2019-03-31T00:54:40.577Z,45.00
2019-03-31T00:55:11.814Z,45.78
2019-03-31T00:55:43.100Z,46.58
2019-03-31T00:56:14.318Z,48.02
2019-03-31T00:56:45.528Z,49.15
2019-03-31T00:57:16.730Z,48.20
2019-03-31T00:57:47.921Z,46.28
2019-03-31T00:58:19.144Z,48.85
2019-03-31T00:58:50.398Z,46.28
2019-03-31T00:59:21.600Z,46.45
2019-03-31T00:59:52.849Z,47.53
2019-03-31T01:00:24.078Z,51.68
2019-03-31T01:00:55.288Z,51.02
2019-03-31T01:01:36.237Z,51.73
2019-03-31T01:01:59.450Z,46.20
2019-03-31T01:02:30.647Z,48.58
2019-03-31T01:03:01.863Z,52.17
2019-03-31T01:03:33.066Z,47.80
2019-03-31T01:04:04.288Z,47.40
2019-03-31T01:04:35.510Z,47.70
2019-03-31T01:05:06.756Z,47.78
2019-03-31T01:05:37.976Z,48.90
2019-03-31T01:06:09.178Z,50.17
2019-03-31T01:06:40.374Z,49.58
2019-03-31T01:07:11.579Z,52.62
2019-03-31T01:07:42.790Z,50.00
2019-03-31T01:08:13.990Z,52.23
2019-03-31T01:08:45.211Z,49.38
2019-03-31T01:09:16.421Z,50.43
2019-03-31T01:09:47.639Z,48.65
2019-03-31T01:10:18.903Z,52.88
2019-03-31T01:10:50.112Z,52.85
2019-03-31T01:11:21.331Z,50.67
2019-03-31T01:11:52.586Z,50.60
2019-03-31T01:12:23.795Z,49.40
2019-03-31T01:12:54.988Z,47.25
2019-03-31T01:13:26.187Z,51.13
2019-03-31T01:13:57.395Z,50.30
2019-03-31T01:14:28.635Z,48.98
2019-03-31T01:14:59.852Z,41.92
2019-03-31T01:15:31.073Z,43.25
2019-03-31T01:16:02.276Z,44.63
2019-03-31T01:16:33.488Z,45.67
2019-03-31T01:17:04.734Z,43.80
2019-03-31T01:17:35.933Z,47.70
2019-03-31T01:18:07.143Z,46.05
2019-03-31T01:18:38.375Z,47.27
2019-03-31T01:19:09.595Z,45.70
2019-03-31T01:19:40.802Z,45.35
2019-03-31T01:20:12.020Z,46.80
2019-03-31T01:20:43.238Z,50.15
2019-03-31T01:21:14.522Z,47.35
2019-03-31T01:21:45.707Z,46.77
2019-03-31T01:22:16.913Z,44.05
2019-03-31T01:22:48.126Z,46.23
2019-03-31T01:23:19.321Z,49.50
2019-03-31T01:23:50.528Z,46.80
2019-03-31T01:24:21.746Z,49.33
2019-03-31T01:24:52.987Z,45.75
2019-03-31T01:25:24.184Z,47.53
2019-03-31T01:25:55.397Z,47.93
2019-03-31T01:26:26.608Z,50.25
2019-03-31T01:26:57.835Z,50.63
2019-03-31T01:27:29.061Z,52.80
2019-03-31T01:28:00.275Z,51.37
2019-03-31T01:28:31.471Z,48.45
2019-03-31T01:29:02.696Z,49.10
2019-03-31T01:29:33.954Z,51.85
2019-03-31T01:30:05.166Z,47.75
2019-03-31T01:30:36.366Z,51.40
2019-03-31T01:31:07.590Z,49.42
2019-03-31T01:31:49.717Z,51.53
2019-03-31T01:32:11.731Z,53.17
2019-03-31T01:32:42.938Z,50.23
2019-03-31T01:33:14.156Z,51.45
2019-03-31T01:33:45.362Z,52.80
2019-03-31T01:34:16.578Z,51.55
2019-03-31T01:34:47.811Z,49.05
2019-03-31T01:35:19.022Z,52.88
2019-03-31T01:35:50.268Z,48.75
2019-03-31T01:36:21.472Z,51.65
2019-03-31T01:36:52.675Z,50.25
2019-03-31T01:37:23.881Z,49.80
2019-03-31T01:37:55.082Z,50.58
2019-03-31T01:38:26.292Z,49.80
2019-03-31T01:38:57.546Z,49.63
2019-03-31T01:39:28.777Z,50.15
2019-03-31T01:39:59.984Z,52.62
2019-03-31T01:40:31.192Z,53.70
2019-03-31T01:41:02.407Z,51.83
2019-03-31T01:41:33.640Z,53.02
2019-03-31T01:42:04.850Z,55.12
2019-03-31T01:42:36.063Z,50.30
2019-03-31T01:43:07.337Z,52.58
2019-03-31T01:43:38.614Z,52.53
2019-03-31T01:44:09.858Z,48.33
2019-03-31T01:44:41.067Z,47.48
2019-03-31T01:45:12.274Z,47.85
2019-03-31T01:45:43.503Z,50.63
2019-03-31T01:46:14.725Z,52.62
2019-03-31T01:46:45.963Z,51.33
2019-03-31T01:47:17.237Z,50.25
2019-03-31T01:47:48.450Z,52.50
2019-03-31T01:48:19.656Z,54.77
2019-03-31T01:48:50.892Z,54.38
2019-03-31T01:49:22.124Z,53.08
2019-03-31T01:49:53.346Z,52.58
2019-03-31T01:50:24.545Z,50.10
2019-03-31T01:50:55.824Z,50.12
2019-03-31T01:51:27.094Z,51.37
2019-03-31T01:51:58.383Z,51.85
2019-03-31T01:52:29.631Z,50.12
2019-03-31T01:53:00.838Z,50.30
2019-03-31T01:53:32.079Z,47.93
2019-03-31T01:54:03.290Z,49.42
2019-03-31T01:54:34.511Z,47.62
2019-03-31T01:55:05.728Z,48.98
2019-03-31T01:55:36.922Z,46.55
2019-03-31T01:56:08.146Z,46.60
2019-03-31T01:56:39.366Z,50.70
2019-03-31T01:57:10.644Z,48.75
2019-03-31T01:57:41.841Z,47.58
2019-03-31T01:58:13.079Z,46.28
2019-03-31T01:58:44.291Z,45.30
2019-03-31T01:59:15.518Z,49.98
2019-03-31T01:59:46.796Z,43.42
2019-03-31T02:00:18.042Z,44.58
2019-03-31T02:00:49.243Z,45.75
2019-03-31T02:01:20.478Z,48.28
2019-03-31T02:02:03.497Z,48.35
2019-03-31T02:02:24.679Z,48.00
2019-03-31T02:02:55.900Z,48.85
2019-03-31T02:03:27.115Z,45.95
2019-03-31T02:03:58.322Z,44.00
2019-03-31T02:04:29.537Z,45.67
2019-03-31T02:05:00.738Z,40.20
2019-03-31T02:05:31.959Z,40.60
2019-03-31T02:06:03.176Z,41.30
2019-03-31T02:06:34.445Z,42.13
2019-03-31T02:07:05.759Z,39.42
2019-03-31T02:07:36.985Z,40.73
2019-03-31T02:08:08.261Z,42.05
2019-03-31T02:08:39.463Z,40.98
2019-03-31T02:09:10.678Z,42.15
2019-03-31T02:09:41.935Z,38.75
2019-03-31T02:10:13.156Z,39.30
2019-03-31T02:10:44.358Z,39.78
2019-03-31T02:11:15.634Z,41.05
2019-03-31T02:11:46.807Z,36.73
2019-03-31T02:12:18.073Z,39.05
2019-03-31T02:12:49.254Z,40.43
2019-03-31T02:13:20.531Z,42.20
2019-03-31T02:13:51.730Z,41.30
2019-03-31T02:14:22.945Z,39.58
2019-03-31T02:14:54.203Z,39.48
2019-03-31T02:15:25.427Z,38.17
2019-03-31T02:15:56.615Z,38.95
2019-03-31T02:16:27.829Z,45.92
2019-03-31T02:16:59.039Z,37.80
2019-03-31T02:17:30.276Z,36.85
2019-03-31T02:18:01.500Z,37.45
2019-03-31T02:18:32.753Z,40.95
2019-03-31T02:19:04.002Z,35.95
2019-03-31T02:19:35.209Z,37.17
2019-03-31T02:20:06.427Z,36.35
2019-03-31T02:20:37.633Z,38.73
2019-03-31T02:21:08.837Z,40.48
2019-03-31T02:21:40.057Z,37.20
2019-03-31T02:22:11.261Z,37.42
2019-03-31T02:22:42.486Z,40.08
2019-03-31T02:23:13.754Z,39.08
2019-03-31T02:23:44.974Z,39.53
2019-03-31T02:24:16.171Z,38.53
2019-03-31T02:24:47.432Z,38.08
2019-03-31T02:25:18.694Z,34.95
2019-03-31T02:25:49.903Z,39.35
2019-03-31T02:26:21.106Z,39.60
2019-03-31T02:26:52.309Z,39.78
2019-03-31T02:27:23.517Z,41.50
2019-03-31T02:27:54.727Z,40.70
2019-03-31T02:28:25.938Z,38.20
2019-03-31T02:28:57.165Z,40.30
2019-03-31T02:29:28.384Z,39.70
2019-03-31T02:29:59.588Z,41.48
2019-03-31T02:30:30.864Z,41.15
2019-03-31T02:31:02.076Z,34.20
2019-03-31T02:31:33.285Z,37.67
2019-03-31T02:32:22.134Z,36.55
2019-03-31T02:32:37.463Z,34.23
2019-03-31T02:33:08.648Z,35.38
2019-03-31T02:33:39.868Z,35.68
2019-03-31T02:34:11.090Z,35.80
2019-03-31T02:34:42.322Z,37.33
2019-03-31T02:35:13.595Z,41.68
2019-03-31T02:35:44.923Z,36.75
2019-03-31T02:36:16.135Z,37.95
2019-03-31T02:36:47.477Z,38.65
2019-03-31T02:37:18.698Z,34.83
2019-03-31T02:37:49.928Z,36.77
2019-03-31T02:38:21.134Z,37.83
2019-03-31T02:38:52.354Z,38.33
2019-03-31T02:39:23.599Z,36.45
2019-03-31T02:39:54.805Z,35.25
2019-03-31T02:40:26.032Z,36.17
2019-03-31T02:40:57.273Z,34.55
2019-03-31T02:41:28.489Z,36.45
2019-03-31T02:41:59.722Z,35.30
2019-03-31T02:42:30.937Z,36.05
2019-03-31T02:43:02.164Z,39.00
2019-03-31T02:43:33.392Z,36.83
2019-03-31T02:44:04.589Z,34.48
2019-03-31T02:44:35.810Z,34.67
2019-03-31T02:45:07.121Z,33.67
2019-03-31T02:45:38.323Z,33.95
2019-03-31T02:46:09.565Z,34.25
2019-03-31T02:46:40.778Z,36.80
2019-03-31T02:47:12.025Z,37.70
2019-03-31T02:47:43.248Z,32.78
2019-03-31T02:48:14.461Z,34.05
2019-03-31T02:48:45.674Z,32.88
2019-03-31T02:49:16.937Z,35.15
2019-03-31T02:49:48.164Z,33.40
2019-03-31T02:50:19.385Z,33.83
2019-03-31T02:50:50.601Z,34.95
2019-03-31T02:51:21.891Z,32.08
2019-03-31T02:51:53.103Z,33.23
2019-03-31T02:52:24.398Z,30.50
2019-03-31T02:52:55.602Z,31.73
2019-03-31T02:53:26.810Z,32.50
2019-03-31T02:53:58.060Z,33.33
2019-03-31T02:54:29.288Z,31.85
2019-03-31T02:55:00.658Z,33.95
2019-03-31T02:55:31.875Z,34.25
2019-03-31T02:56:03.108Z,31.20
2019-03-31T02:56:34.310Z,34.20
2019-03-31T02:57:05.584Z,32.10
2019-03-31T02:57:36.909Z,32.83
2019-03-31T02:58:08.102Z,33.83
2019-03-31T02:58:39.334Z,32.93
2019-03-31T02:59:10.514Z,34.65
2019-03-31T02:59:41.723Z,32.45
2019-03-31T03:00:12.952Z,32.17
2019-03-31T03:00:44.165Z,30.48
2019-03-31T03:01:15.374Z,30.75
2019-03-31T03:01:46.600Z,29.02
2019-03-31T03:02:17.900Z,32.70
2019-03-31T03:02:49.156Z,30.95
2019-03-31T03:03:20.365Z,30.72
2019-03-31T03:03:51.640Z,31.65
2019-03-31T03:04:22.900Z,33.02
2019-03-31T03:04:54.138Z,31.97
2019-03-31T03:05:25.403Z,30.12
2019-03-31T03:05:56.619Z,30.08
2019-03-31T03:06:27.844Z,30.32
2019-03-31T03:06:59.043Z,32.42
2019-03-31T03:07:30.270Z,33.92
2019-03-31T03:08:01.442Z,33.65
2019-03-31T03:08:32.675Z,32.50
2019-03-31T03:09:03.929Z,33.92
2019-03-31T03:09:35.148Z,30.32
2019-03-31T03:10:06.375Z,33.85
2019-03-31T03:10:37.588Z,31.27
2019-03-31T03:11:08.803Z,30.70
2019-03-31T03:11:40.003Z,34.23
2019-03-31T03:12:11.215Z,34.35
2019-03-31T03:12:42.459Z,32.30
2019-03-31T03:13:13.673Z,30.43
2019-03-31T03:13:44.871Z,30.32
2019-03-31T03:14:16.130Z,32.05
2019-03-31T03:14:47.360Z,33.92
2019-03-31T03:15:18.571Z,31.20
2019-03-31T03:15:49.782Z,34.00
2019-03-31T03:16:20.989Z,34.63
2019-03-31T03:16:52.179Z,31.97
2019-03-31T03:17:23.398Z,32.98
2019-03-31T03:17:54.628Z,34.05
2019-03-31T03:18:25.860Z,35.52
2019-03-31T03:18:57.079Z,32.73
2019-03-31T03:19:28.340Z,33.60
2019-03-31T03:19:59.551Z,30.90
2019-03-31T03:20:30.767Z,31.75
2019-03-31T03:21:01.978Z,31.82
2019-03-31T03:21:33.194Z,31.95
2019-03-31T03:22:04.396Z,32.45
2019-03-31T03:22:35.619Z,35.55
2019-03-31T03:23:06.826Z,33.60
2019-03-31T03:23:38.038Z,29.90
2019-03-31T03:24:09.297Z,31.23
2019-03-31T03:24:40.480Z,32.38
2019-03-31T03:25:11.726Z,31.65
2019-03-31T03:25:55.729Z,30.45
2019-03-31T03:26:16.061Z,32.65
2019-03-31T03:26:47.270Z,33.88
2019-03-31T03:27:18.537Z,32.05
2019-03-31T03:27:49.758Z,35.55
2019-03-31T03:28:20.998Z,30.90
2019-03-31T03:28:52.231Z,32.58
2019-03-31T03:29:23.511Z,32.53
2019-03-31T03:30:05.465Z,35.68
2019-03-31T03:30:36.844Z,31.45
2019-03-31T03:31:15.018Z,35.13
2019-03-31T03:31:41.106Z,33.05
2019-03-31T03:32:12.306Z,35.60
2019-03-31T03:33:11.942Z,33.53
2019-03-31T03:33:18.175Z,35.50
2019-03-31T03:33:49.411Z,34.25
2019-03-31T03:34:20.655Z,33.10
2019-03-31T03:34:51.929Z,33.50
2019-03-31T03:35:23.154Z,33.42
2019-03-31T03:35:54.346Z,33.60
2019-03-31T03:36:25.554Z,35.40
2019-03-31T03:36:56.765Z,34.20
2019-03-31T03:37:28.049Z,34.53
2019-03-31T03:37:59.249Z,35.38
2019-03-31T03:38:30.487Z,33.88
2019-03-31T03:39:01.696Z,33.92
2019-03-31T03:39:32.915Z,35.48
2019-03-31T03:40:04.162Z,32.83
2019-03-31T03:40:35.375Z,32.42
2019-03-31T03:41:06.601Z,34.92
2019-03-31T03:41:37.830Z,33.18
2019-03-31T03:42:09.125Z,34.40
2019-03-31T03:42:40.357Z,32.55
2019-03-31T03:43:11.620Z,36.55
2019-03-31T03:43:55.013Z,34.13
2019-03-31T03:44:15.755Z,35.00
2019-03-31T03:44:46.972Z,34.20
2019-03-31T03:45:18.162Z,38.35
2019-03-31T03:45:49.391Z,34.53
2019-03-31T03:46:20.653Z,33.98
2019-03-31T03:46:51.863Z,35.13
2019-03-31T03:47:23.074Z,33.85
2019-03-31T03:47:54.295Z,33.67
2019-03-31T03:48:25.501Z,34.27
2019-03-31T03:48:56.847Z,31.40
2019-03-31T03:49:28.103Z,34.53
2019-03-31T03:49:59.280Z,35.35
2019-03-31T03:50:30.496Z,35.03
2019-03-31T03:51:01.714Z,34.73
2019-03-31T03:51:32.977Z,35.20
2019-03-31T03:52:04.183Z,35.70
2019-03-31T03:52:35.387Z,35.88
2019-03-31T03:53:06.601Z,32.67
2019-03-31T03:53:37.825Z,34.67
2019-03-31T03:54:09.023Z,32.93
2019-03-31T03:54:40.299Z,32.28
2019-03-31T03:55:11.485Z,37.03
2019-03-31T03:55:42.685Z,39.80
2019-03-31T03:56:13.884Z,34.03
2019-03-31T03:56:45.484Z,36.85
2019-03-31T03:57:16.677Z,39.00
2019-03-31T03:57:47.933Z,35.55
2019-03-31T03:58:19.137Z,39.67
2019-03-31T03:58:50.383Z,35.30
2019-03-31T03:59:21.551Z,37.23
2019-03-31T03:59:52.731Z,38.75
2019-03-31T04:00:23.907Z,36.93
2019-03-31T04:00:55.405Z,34.95
2019-03-31T04:01:26.610Z,36.25
2019-03-31T04:01:57.789Z,35.60
2019-03-31T04:02:29.001Z,35.52
2019-03-31T04:03:00.172Z,38.38
2019-03-31T04:03:31.396Z,38.63
2019-03-31T04:04:02.533Z,44.77
2019-03-31T04:04:33.694Z,42.43
2019-03-31T04:05:04.922Z,39.58
2019-03-31T04:05:36.142Z,38.17
2019-03-31T04:06:07.346Z,39.78
2019-03-31T04:06:38.480Z,38.28
2019-03-31T04:07:09.651Z,39.48
2019-03-31T04:07:40.814Z,37.23
2019-03-31T04:08:11.975Z,36.90
2019-03-31T04:08:43.134Z,38.75
2019-03-31T04:09:14.378Z,39.42
2019-03-31T04:09:45.534Z,41.60
2019-03-31T04:10:16.731Z,35.88
2019-03-31T04:10:47.929Z,37.13
2019-03-31T04:11:21.571Z,40.08
2019-03-31T04:11:51.990Z,33.83
2019-03-31T04:12:23.177Z,36.60
2019-03-31T04:12:54.397Z,37.88
2019-03-31T04:13:25.588Z,33.63
2019-03-31T04:13:56.739Z,39.25
2019-03-31T04:14:27.944Z,36.80
2019-03-31T04:14:59.113Z,37.15
2019-03-31T04:15:30.417Z,37.95
2019-03-31T04:16:01.580Z,38.63
2019-03-31T04:16:32.772Z,39.40
2019-03-31T04:17:03.947Z,39.25
2019-03-31T04:17:35.111Z,39.33
2019-03-31T04:18:06.279Z,38.50
2019-03-31T04:18:37.446Z,36.60
2019-03-31T04:19:08.647Z,36.58
2019-03-31T04:19:39.825Z,37.75
2019-03-31T04:20:11.019Z,41.42
2019-03-31T04:20:42.182Z,41.13
2019-03-31T04:21:13.371Z,38.85
2019-03-31T04:21:44.540Z,40.75
2019-03-31T04:22:15.767Z,45.43
2019-03-31T04:22:46.926Z,42.73
2019-03-31T04:23:18.145Z,45.23
2019-03-31T04:23:49.363Z,45.98
2019-03-31T04:24:20.564Z,48.90
2019-03-31T04:24:51.730Z,43.83
2019-03-31T04:25:22.905Z,44.80
2019-03-31T04:25:54.157Z,45.95
2019-03-31T04:26:25.357Z,43.95
2019-03-31T04:26:56.527Z,41.70
2019-03-31T04:27:27.689Z,40.55
2019-03-31T04:27:58.878Z,38.70
2019-03-31T04:28:30.058Z,36.85
2019-03-31T04:29:01.223Z,37.70
2019-03-31T04:29:32.440Z,43.25
2019-03-31T04:30:03.622Z,41.98
2019-03-31T04:30:34.811Z,41.98
2019-03-31T04:31:05.987Z,43.40
2019-03-31T04:31:37.199Z,39.33
2019-03-31T04:32:08.390Z,41.30
2019-03-31T04:32:39.561Z,41.18
2019-03-31T04:33:10.732Z,40.80
2019-03-31T04:33:51.300Z,42.53
2019-03-31T04:34:14.772Z,41.45
2019-03-31T04:34:45.962Z,42.00
2019-03-31T04:35:17.133Z,43.83
2019-03-31T04:35:48.307Z,49.98
2019-03-31T04:36:19.520Z,43.15
2019-03-31T04:36:50.710Z,43.25
2019-03-31T04:37:21.969Z,44.30
2019-03-31T04:37:53.128Z,44.42
2019-03-31T04:38:24.286Z,42.50
2019-03-31T04:38:59.896Z,38.17
2019-03-31T04:39:28.382Z,33.80
2019-03-31T04:39:59.629Z,33.67
2019-03-31T04:40:30.834Z,33.02
2019-03-31T04:41:02.033Z,37.70
2019-03-31T04:41:33.205Z,35.52
2019-03-31T04:42:04.377Z,39.15
2019-03-31T04:42:35.548Z,47.83
2019-03-31T04:43:06.715Z,48.50
2019-03-31T04:43:37.893Z,46.20
2019-03-31T04:44:09.086Z,46.13
2019-03-31T04:44:40.308Z,43.38
2019-03-31T04:45:11.495Z,37.08
2019-03-31T04:45:43.012Z,41.08
2019-03-31T04:46:14.208Z,36.42
2019-03-31T04:46:45.383Z,38.13
2019-03-31T04:47:16.626Z,40.03
2019-03-31T04:47:47.787Z,43.50
2019-03-31T04:48:18.955Z,47.95
2019-03-31T04:48:50.108Z,49.63
2019-03-31T04:49:21.280Z,48.92
2019-03-31T04:49:52.465Z,48.17
2019-03-31T04:50:23.675Z,46.95
2019-03-31T04:50:54.841Z,49.70
2019-03-31T04:51:26.011Z,50.38
2019-03-31T04:51:57.218Z,48.52
2019-03-31T04:52:28.378Z,48.38
2019-03-31T04:52:59.543Z,49.60
2019-03-31T04:53:30.751Z,47.90
2019-03-31T04:54:01.950Z,50.38
2019-03-31T04:54:33.129Z,50.70
2019-03-31T04:55:04.317Z,45.17
2019-03-31T04:55:35.473Z,44.10
2019-03-31T04:56:06.644Z,47.43
2019-03-31T04:56:37.883Z,45.43
2019-03-31T04:57:09.045Z,40.88
2019-03-31T04:57:40.262Z,40.90
2019-03-31T04:58:11.423Z,41.25
2019-03-31T04:58:42.591Z,41.60
2019-03-31T04:59:13.770Z,43.28
2019-03-31T04:59:44.929Z,43.60
2019-03-31T05:00:16.105Z,40.30
2019-03-31T05:00:47.281Z,36.53
2019-03-31T05:01:18.449Z,40.25
2019-03-31T05:01:49.615Z,43.15
2019-03-31T05:02:20.785Z,42.60
2019-03-31T05:02:51.997Z,40.23
2019-03-31T05:03:23.224Z,41.08
2019-03-31T05:04:04.680Z,41.15
2019-03-31T05:04:27.276Z,44.60
2019-03-31T05:04:58.446Z,40.28
2019-03-31T05:05:29.608Z,38.60
2019-03-31T05:06:00.792Z,40.35
2019-03-31T05:06:31.948Z,39.90
2019-03-31T05:07:03.147Z,42.27
2019-03-31T05:07:34.333Z,41.25
2019-03-31T05:08:05.503Z,42.70
2019-03-31T05:08:36.717Z,40.55
2019-03-31T05:09:07.956Z,39.08
2019-03-31T05:09:39.130Z,45.28
2019-03-31T05:10:10.299Z,40.45
2019-03-31T05:10:41.503Z,40.38
2019-03-31T05:11:12.675Z,40.73
2019-03-31T05:11:43.849Z,40.65
2019-03-31T05:12:16.913Z,40.30
2019-03-31T05:12:47.923Z,42.15
2019-03-31T05:13:19.106Z,39.27
2019-03-31T05:13:50.281Z,39.83
2019-03-31T05:14:21.450Z,39.03
2019-03-31T05:14:52.636Z,40.60
2019-03-31T05:15:23.845Z,39.83
2019-03-31T05:15:55.015Z,39.38
2019-03-31T05:16:26.185Z,40.80
2019-03-31T05:16:57.351Z,38.73
2019-03-31T05:17:28.528Z,38.35
2019-03-31T05:17:59.700Z,40.65
2019-03-31T05:18:30.858Z,39.83
2019-03-31T05:19:02.034Z,42.55
2019-03-31T05:19:33.199Z,41.58
2019-03-31T05:20:04.351Z,39.27
2019-03-31T05:20:35.587Z,39.33
2019-03-31T05:21:06.815Z,41.00
2019-03-31T05:21:38.025Z,39.78
2019-03-31T05:22:09.205Z,41.85
2019-03-31T05:22:40.382Z,40.70
2019-03-31T05:23:11.530Z,41.05
2019-03-31T05:23:42.767Z,41.23
2019-03-31T05:24:13.924Z,40.23
2019-03-31T05:24:45.116Z,39.80
2019-03-31T05:25:16.299Z,39.58
2019-03-31T05:25:47.513Z,39.85
2019-03-31T05:26:18.670Z,39.23
2019-03-31T05:26:49.845Z,36.77
2019-03-31T05:27:20.996Z,39.73
2019-03-31T05:27:52.175Z,37.78
2019-03-31T05:28:23.360Z,37.70
2019-03-31T05:28:54.577Z,36.03
2019-03-31T05:29:25.762Z,36.95
2019-03-31T05:29:56.945Z,36.50
2019-03-31T05:30:28.112Z,36.83
2019-03-31T05:30:59.378Z,37.28
2019-03-31T05:31:30.537Z,35.90
2019-03-31T05:32:01.716Z,35.90
2019-03-31T05:32:32.901Z,33.88
2019-03-31T05:33:04.067Z,35.73
2019-03-31T05:33:35.354Z,36.65
2019-03-31T05:34:18.543Z,34.85
2019-03-31T05:34:39.442Z,36.38
2019-03-31T05:35:10.621Z,35.83
2019-03-31T05:35:41.807Z,36.40
2019-03-31T05:36:13.023Z,34.88
2019-03-31T05:36:44.193Z,37.28
2019-03-31T05:37:15.420Z,34.78
2019-03-31T05:37:51.211Z,34.48
2019-03-31T05:38:19.463Z,34.92
2019-03-31T05:38:50.622Z,34.27
2019-03-31T05:39:21.801Z,34.55
2019-03-31T05:39:52.972Z,34.05
2019-03-31T05:40:24.137Z,33.88
2019-03-31T05:40:55.315Z,33.45
2019-03-31T05:41:26.586Z,33.13
2019-03-31T05:41:57.784Z,31.02
2019-03-31T05:42:28.951Z,32.70
2019-03-31T05:43:00.112Z,31.02
2019-03-31T05:43:31.296Z,31.62
2019-03-31T05:44:05.854Z,33.53
2019-03-31T05:44:35.365Z,30.68
2019-03-31T05:45:06.524Z,32.30
2019-03-31T05:45:37.681Z,30.05
2019-03-31T05:46:08.863Z,31.02
2019-03-31T05:46:40.031Z,34.13
2019-03-31T05:47:11.244Z,34.18
2019-03-31T05:47:42.410Z,32.75
2019-03-31T05:48:13.595Z,35.45
2019-03-31T05:48:44.812Z,34.55
2019-03-31T05:49:15.976Z,33.20
2019-03-31T05:49:47.137Z,33.90
2019-03-31T05:50:18.336Z,33.38
2019-03-31T05:50:49.485Z,32.35
2019-03-31T05:51:20.647Z,30.45
2019-03-31T05:51:51.827Z,32.78
2019-03-31T05:52:23.041Z,30.40
2019-03-31T05:52:54.202Z,35.83
2019-03-31T05:53:25.387Z,32.80
2019-03-31T05:53:56.546Z,31.30
2019-03-31T05:54:27.738Z,32.42
2019-03-31T05:54:58.891Z,32.23
2019-03-31T05:55:30.103Z,33.63
2019-03-31T05:56:01.272Z,31.95
2019-03-31T05:56:32.434Z,34.43
2019-03-31T05:57:03.610Z,31.93
2019-03-31T05:57:34.775Z,29.90
2019-03-31T05:58:05.932Z,30.45
2019-03-31T05:58:37.118Z,31.12
2019-03-31T05:59:08.329Z,35.35
2019-03-31T05:59:39.522Z,31.40
2019-03-31T06:00:10.733Z,32.88
2019-03-31T06:00:41.896Z,30.65
2019-03-31T06:01:13.151Z,31.52
2019-03-31T06:01:44.319Z,32.08
2019-03-31T06:02:15.494Z,32.83
2019-03-31T06:02:46.656Z,34.03
2019-03-31T06:03:17.842Z,36.00
2019-03-31T06:03:49.003Z,31.95
2019-03-31T06:04:32.655Z,34.13
2019-03-31T06:04:53.115Z,33.15
2019-03-31T06:05:24.277Z,29.30
2019-03-31T06:05:55.443Z,33.50
2019-03-31T06:06:26.601Z,32.33
2019-03-31T06:06:57.764Z,33.88
2019-03-31T06:07:28.928Z,34.08
2019-03-31T06:08:00.089Z,33.13
2019-03-31T06:08:31.242Z,34.18
2019-03-31T06:09:02.405Z,32.60
2019-03-31T06:09:33.608Z,32.78
2019-03-31T06:10:04.825Z,32.75
2019-03-31T06:10:36.015Z,32.75
2019-03-31T06:11:07.276Z,33.70
2019-03-31T06:11:38.455Z,31.90
2019-03-31T06:12:09.617Z,31.87
2019-03-31T06:12:40.778Z,32.48
2019-03-31T06:13:11.972Z,31.93
2019-03-31T06:13:43.134Z,31.50
2019-03-31T06:14:14.642Z,32.30
2019-03-31T06:14:45.816Z,34.18
2019-03-31T06:15:17.065Z,30.88
2019-03-31T06:15:48.225Z,30.17
2019-03-31T06:16:19.389Z,33.67
2019-03-31T06:16:50.553Z,29.70
2019-03-31T06:17:21.720Z,31.93
2019-03-31T06:17:52.884Z,32.10
2019-03-31T06:18:24.065Z,32.33
2019-03-31T06:18:55.327Z,32.42
2019-03-31T06:19:26.581Z,32.20
2019-03-31T06:19:57.739Z,33.05
2019-03-31T06:20:28.964Z,31.40
2019-03-31T06:21:00.120Z,30.82
2019-03-31T06:21:31.299Z,31.27
2019-03-31T06:22:02.558Z,33.30
2019-03-31T06:22:33.731Z,32.60
2019-03-31T06:23:04.937Z,30.23
2019-03-31T06:23:36.106Z,30.35
2019-03-31T06:24:07.292Z,28.50
2019-03-31T06:24:38.447Z,32.30
2019-03-31T06:25:09.600Z,29.82
2019-03-31T06:25:40.776Z,29.95
2019-03-31T06:26:11.957Z,30.37
2019-03-31T06:26:43.119Z,30.52
2019-03-31T06:27:15.775Z,33.10
2019-03-31T06:27:47.155Z,33.85
2019-03-31T06:28:18.367Z,31.68
2019-03-31T06:28:49.542Z,29.52
2019-03-31T06:29:20.726Z,31.00
2019-03-31T06:29:51.938Z,28.87
2019-03-31T06:30:23.125Z,27.17
2019-03-31T06:30:54.291Z,27.05
2019-03-31T06:31:25.460Z,28.47
2019-03-31T06:31:56.626Z,30.43
2019-03-31T06:32:27.797Z,29.52
2019-03-31T06:32:59.000Z,25.48
2019-03-31T06:33:30.196Z,26.50
2019-03-31T06:34:01.401Z,25.95
2019-03-31T06:34:46.417Z,28.10
2019-03-31T06:35:05.460Z,26.48
2019-03-31T06:35:36.608Z,26.20
2019-03-31T06:36:07.807Z,28.15
2019-03-31T06:36:38.970Z,28.15
2019-03-31T06:37:10.143Z,27.02
2019-03-31T06:37:41.314Z,25.02
2019-03-31T06:38:12.972Z,27.77
2019-03-31T06:38:44.131Z,24.85
2019-03-31T06:39:15.310Z,26.42
2019-03-31T06:39:46.501Z,25.85
2019-03-31T06:40:17.679Z,25.88
2019-03-31T06:40:48.854Z,26.15
2019-03-31T06:41:20.033Z,27.40
2019-03-31T06:41:51.211Z,25.37
2019-03-31T06:42:22.389Z,25.82
2019-03-31T06:42:53.566Z,25.08